Time;durP1;ratioP1;P1;durP2;ratioP2;P2;SDS_P1;SDS_P2;PMS_P1;PMS_P2;Temp;Humidity;BMP_temperature;BMP_pressure;BME280_temperature;BME280_humidity;BME280_pressure;Samples;Min_cycle;Max_cycle;Signal;HPM_P1;HPM_P2
2023/03/26 00:03:06;;;;;;;5.15;0.40;;;;;;;10.69;61.94;99656.97;10351813;28;20104;-71
2023/03/26 00:08:08;;;;;;;12.20;0.65;;;;;;;10.65;62.20;99656.50;10344702;28;20081;-69
2023/03/26 00:13:10;;;;;;;3.75;0.50;;;;;;;10.68;62.14;99663.34;10339039;28;20055;-69
2023/03/26 00:18:11;;;;;;;8.52;0.82;;;;;;;10.70;61.88;99664.84;10346524;28;20042;-69
2023/03/26 00:23:13;;;;;;;4.03;0.95;;;;;;;10.73;61.80;99668.16;10345972;28;20050;-69
2023/03/26 00:28:15;;;;;;;8.07;0.47;;;;;;;10.74;61.79;99677.88;10348413;28;20115;-69
2023/03/26 00:33:17;;;;;;;6.80;0.50;;;;;;;10.76;62.05;99667.75;10346102;28;20070;-69
2023/03/26 00:38:21;;;;;;;4.35;0.47;;;;;;;10.73;62.31;99663.63;10341523;28;20078;-69
2023/03/26 00:43:22;;;;;;;6.13;0.30;;;;;;;10.78;62.01;99671.94;10348523;28;20105;-69
2023/03/26 00:48:26;;;;;;;3.33;0.75;;;;;;;10.80;62.00;99663.66;10344182;28;20050;-69
2023/03/26 00:53:46;;;;;;;6.28;0.32;;;;;;;10.68;62.24;99657.97;10368176;28;20077;-69
2023/03/26 00:58:48;;;;;;;4.93;0.38;;;;;;;10.63;62.66;99645.13;10342797;28;20077;-69
2023/03/26 01:03:57;;;;;;;4.20;0.30;;;;;;;10.61;62.66;99641.81;10374053;28;20371;-69
2023/03/26 01:09:19;;;;;;;;;;;;;;;10.55;62.54;99639.91;10345033;28;20050;-69
2023/03/26 01:14:25;;;;;;;4.65;0.47;;;;;;;10.50;62.83;99639.63;10343402;28;20382;-69
2023/03/26 01:19:36;;;;;;;3.42;0.50;;;;;;;10.49;62.78;99644.19;10344547;28;20049;-69
2023/03/26 01:24:39;;;;;;;7.57;1.40;;;;;;;10.48;63.10;99631.75;10345479;28;20119;-69
2023/03/26 01:30:06;;;;;;;4.05;0.60;;;;;;;10.38;63.40;99633.94;10369845;28;20062;-69
2023/03/26 01:35:31;;;;;;;3.23;0.60;;;;;;;10.39;63.37;99627.56;10343167;28;20080;-69
2023/03/26 01:40:45;;;;;;;8.20;0.45;;;;;;;10.41;63.19;99625.50;10340518;28;20053;-69
2023/03/26 01:45:48;;;;;;;4.82;0.40;;;;;;;10.35;63.48;99617.38;10359252;28;20092;-69
2023/03/26 01:50:52;;;;;;;10.05;1.05;;;;;;;10.35;63.73;99601.25;10339863;28;20050;-69
2023/03/26 01:56:30;;;;;;;7.05;0.40;;;;;;;10.36;63.62;99594.88;10363261;28;20058;-70
2023/03/26 02:01:53;;;;;;;4.35;0.70;;;;;;;10.34;63.78;99591.53;10336935;28;20046;-69
2023/03/26 02:07:08;;;;;;;7.47;0.77;;;;;;;10.25;63.84;99586.28;10340561;28;20153;-69
2023/03/26 02:12:09;;;;;;;3.08;0.77;;;;;;;10.24;63.99;99581.09;10354206;28;20054;-69
2023/03/26 02:17:11;;;;;;;11.45;1.02;;;;;;;10.26;63.63;99579.03;10340440;28;20078;-69
2023/03/26 02:22:15;;;;;;;5.68;0.55;;;;;;;10.24;63.99;99575.72;10340439;28;20170;-69
2023/03/26 02:27:17;;;;;;;6.03;0.43;;;;;;;10.31;64.17;99557.84;10369930;28;20108;-69
2023/03/26 02:32:19;;;;;;;5.68;0.50;;;;;;;10.26;63.96;99558.38;10362199;28;20160;-69
2023/03/26 02:37:20;;;;;;;4.20;0.60;;;;;;;10.29;63.74;99559.88;10371055;28;20077;-69
2023/03/26 02:42:21;;;;;;;4.68;1.05;;;;;;;10.30;63.48;99548.94;10347001;28;20105;-69
2023/03/26 02:47:23;;;;;;;5.25;0.63;;;;;;;10.28;63.66;99547.44;10339415;28;20517;-69
2023/03/26 02:52:24;;;;;;;6.07;1.08;;;;;;;10.17;64.32;99543.44;10342179;28;20469;-69
2023/03/26 02:57:26;;;;;;;6.25;0.60;;;;;;;10.18;64.22;99541.59;10342919;28;20085;-69
2023/03/26 03:02:28;;;;;;;2.88;0.50;;;;;;;10.11;64.47;99528.94;10342871;28;20452;-69
2023/03/26 03:07:29;;;;;;;4.53;0.95;;;;;;;10.16;64.30;99522.97;10361962;28;20050;-69
2023/03/26 03:12:31;;;;;;;7.32;2.38;;;;;;;10.16;64.41;99522.16;10343231;28;20076;-69
2023/03/26 03:17:32;;;;;;;6.53;0.70;;;;;;;10.13;64.55;99518.00;10340619;28;20077;-69
2023/03/26 03:22:35;;;;;;;4.25;0.50;;;;;;;10.16;64.26;99511.41;10340920;28;20046;-69
2023/03/26 03:27:38;;;;;;;4.22;0.60;;;;;;;10.12;64.34;99509.09;10344151;28;20049;-69
2023/03/26 03:32:39;;;;;;;10.75;1.00;;;;;;;10.19;64.24;99509.16;10335094;28;20046;-69
2023/03/26 03:37:41;;;;;;;6.10;0.57;;;;;;;10.23;64.04;99486.25;10341198;28;20056;-70
2023/03/26 03:42:42;;;;;;;9.60;1.40;;;;;;;10.22;64.27;99486.44;10333805;28;20069;-69
2023/03/26 03:47:43;;;;;;;4.93;0.57;;;;;;;10.20;64.33;99488.50;10335636;28;20066;-69
2023/03/26 03:52:45;;;;;;;7.15;0.70;;;;;;;10.27;64.21;99490.22;10336750;28;20117;-69
2023/03/26 03:57:46;;;;;;;7.10;0.60;;;;;;;10.35;64.28;99467.78;10332408;28;20124;-69
2023/03/26 04:02:48;;;;;;;4.50;0.60;;;;;;;10.40;64.02;99459.13;10348911;28;20115;-69
2023/03/26 04:07:49;;;;;;;3.08;0.45;;;;;;;10.41;64.13;99455.44;10346094;28;20104;-69
2023/03/26 04:12:51;;;;;;;9.35;0.70;;;;;;;10.35;64.38;99442.75;10339677;28;20159;-70
2023/03/26 04:17:52;;;;;;;6.57;0.65;;;;;;;10.40;64.48;99443.00;10338758;28;20053;-69
2023/03/26 04:22:53;;;;;;;13.65;1.55;;;;;;;10.28;65.08;99440.81;10339067;28;20077;-69
2023/03/26 04:27:57;;;;;;;5.70;1.17;;;;;;;10.12;65.63;99441.13;10335807;28;20085;-68
2023/03/26 04:33:02;;;;;;;9.77;1.40;;;;;;;9.92;66.41;99433.75;10333989;28;20402;-68
2023/03/26 04:38:05;;;;;;;8.98;0.77;;;;;;;9.99;66.42;99427.59;10339262;28;20050;-68
2023/03/26 04:43:11;;;;;;;13.38;1.35;;;;;;;9.97;66.47;99417.06;10340175;28;20042;-68
2023/03/26 04:48:13;;;;;;;4.70;0.82;;;;;;;9.90;67.06;99400.09;10344563;28;20097;-68
2023/03/26 04:53:20;;;;;;;8.40;1.08;;;;;;;9.84;67.47;99392.81;10341699;28;20092;-68
2023/03/26 04:58:31;;;;;;;6.30;1.73;;;;;;;9.80;67.51;99376.28;10359842;28;20108;-67
2023/03/26 05:03:33;;;;;;;7.80;1.20;;;;;;;9.81;67.25;99375.22;10344649;28;20049;-68
2023/03/26 05:08:34;;;;;;;8.25;0.98;;;;;;;9.86;67.52;99361.25;10358014;28;20150;-68
2023/03/26 05:13:36;;;;;;;9.40;1.48;;;;;;;9.94;67.54;99342.28;10357732;28;20077;-68
2023/03/26 05:18:38;;;;;;;7.63;0.90;;;;;;;10.06;67.38;99331.84;10341307;28;20046;-75
2023/03/26 05:23:39;;;;;;;8.80;1.85;;;;;;;10.11;67.37;99342.78;10338533;28;20555;-77
2023/03/26 05:28:41;;;;;;;7.63;1.23;;;;;;;10.15;67.43;99329.81;10338925;28;20042;-77
2023/03/26 05:33:42;;;;;;;7.53;0.82;;;;;;;10.16;67.36;99316.19;10338572;28;20050;-76
2023/03/26 05:38:48;;;;;;;9.65;1.13;;;;;;;10.17;67.62;99306.25;10340651;28;20677;-75
2023/03/26 05:43:50;;;;;;;9.73;1.33;;;;;;;10.28;67.35;99290.41;10342715;28;20046;-76
2023/03/26 05:48:52;;;;;;;11.95;1.83;;;;;;;10.33;67.05;99279.13;10340405;28;20070;-78
2023/03/26 05:53:54;;;;;;;8.85;0.90;;;;;;;10.39;67.33;99270.25;10343336;28;20066;-78
2023/03/26 05:58:55;;;;;;;8.48;1.08;;;;;;;10.43;67.06;99251.88;10344340;28;20061;-76
2023/03/26 06:03:57;;;;;;;9.55;1.10;;;;;;;10.50;67.17;99260.75;10339934;28;20050;-77
2023/03/26 06:08:59;;;;;;;6.13;0.90;;;;;;;10.46;67.55;99259.50;10339956;28;20120;-77
2023/03/26 06:14:03;;;;;;;7.50;0.70;;;;;;;10.42;67.47;99260.94;10338497;28;20053;-77
2023/03/26 06:19:04;;;;;;;5.25;0.82;;;;;;;10.41;67.75;99256.63;10343780;28;20077;-76
2023/03/26 06:24:06;;;;;;;6.45;2.00;;;;;;;10.31;68.41;99243.56;10373768;28;20104;-76
2023/03/26 06:29:08;;;;;;;5.72;1.00;;;;;;;10.45;67.71;99233.69;10338913;28;20493;-77
2023/03/26 06:34:09;;;;;;;10.73;1.48;;;;;;;10.58;67.69;99222.94;10338574;28;20524;-77
2023/03/26 06:39:10;;;;;;;11.75;2.05;;;;;;;10.63;67.79;99215.13;10338245;28;20085;-76
2023/03/26 06:44:12;;;;;;;12.52;1.10;;;;;;;10.80;67.94;99212.03;10339025;28;20046;-75
2023/03/26 06:49:13;;;;;;;8.70;1.05;;;;;;;10.88;67.70;99209.13;10343456;28;20486;-78
2023/03/26 06:54:15;;;;;;;9.05;1.20;;;;;;;10.83;68.12;99198.19;10338625;28;20576;-77
2023/03/26 06:59:17;;;;;;;6.07;1.02;;;;;;;10.80;68.25;99196.75;10346950;28;20049;-73
2023/03/26 07:04:18;;;;;;;2.50;0.88;;;;;;;10.66;68.63;99192.38;10341476;28;20211;-78
2023/03/26 07:09:19;;;;;;;10.68;1.67;;;;;;;10.60;68.63;99194.00;10356480;28;20061;-70
2023/03/26 07:14:21;;;;;;;8.55;0.90;;;;;;;10.60;68.69;99195.88;10369991;28;20516;-72
2023/03/26 07:19:22;;;;;;;8.27;1.55;;;;;;;10.59;68.49;99191.56;10334882;28;20054;-70
2023/03/26 07:24:24;;;;;;;7.57;1.58;;;;;;;10.57;68.77;99186.38;10335979;28;20050;-69
2023/03/26 07:29:34;;;;;;;11.38;2.03;;;;;;;10.72;68.52;99186.16;10339311;28;20053;-71
2023/03/26 07:35:06;;;;;;;8.45;1.33;;;;;;;10.54;68.85;99161.78;10337454;28;20145;-70
2023/03/26 07:40:45;;;;;;;9.35;1.13;;;;;;;10.47;69.06;99157.22;10335459;28;20065;-71
2023/03/26 07:45:46;;;;;;;7.30;1.40;;;;;;;10.59;69.26;99143.19;10340527;28;20145;-70
2023/03/26 07:50:48;;;;;;;14.60;1.98;;;;;;;10.52;69.62;99140.47;10336653;28;20043;-72
2023/03/26 07:56:01;;;;;;;12.65;1.30;;;;;;;10.34;70.46;99129.50;10379004;28;20496;-74
2023/03/26 08:01:39;;;;;;;7.32;1.40;;;;;;;10.43;70.96;99130.97;10335161;28;20042;-75
2023/03/26 08:06:49;;;;;;;9.57;2.30;;;;;;;10.58;71.08;99120.03;10338830;28;20066;-73
2023/03/26 08:12:06;;;;;;;10.15;2.08;;;;;;;10.55;71.42;99107.84;10343312;28;20516;-69
2023/03/26 08:17:15;;;;;;;13.80;2.27;;;;;;;10.59;71.48;99108.25;10345756;28;20116;-72
2023/03/26 08:22:33;;;;;;;12.45;2.22;;;;;;;10.62;71.69;99105.97;10337940;28;20468;-71
2023/03/26 08:27:48;;;;;;;18.07;2.17;;;;;;;10.50;72.09;99103.09;10345751;28;20041;-72
2023/03/26 08:32:59;;;;;;;10.35;3.10;;;;;;;10.59;72.37;99100.19;10348147;28;20343;-73
2023/03/26 08:38:00;;;;;;;8.90;2.33;;;;;;;10.67;72.25;99102.66;10359652;28;20046;-73
2023/03/26 08:43:22;;;;;;;8.48;1.77;;;;;;;10.58;72.48;99103.91;10365797;28;20041;-71
2023/03/26 08:48:32;;;;;;;11.80;1.77;;;;;;;10.62;72.96;99100.59;10374775;28;20115;-73
2023/03/26 08:53:56;;;;;;;10.35;2.00;;;;;;;10.70;73.11;99083.41;10345223;28;20688;-75
2023/03/26 08:59:24;;;;;;;10.82;1.20;;;;;;;10.78;72.83;99082.38;10345006;28;20077;-72
2023/03/26 09:04:56;;;;;;;9.43;1.48;;;;;;;10.56;73.45;99081.78;10342920;28;20078;-76
2023/03/26 09:10:07;;;;;;;11.25;2.30;;;;;;;10.64;73.58;99054.69;10347342;28;20095;-74
2023/03/26 09:15:15;;;;;;;12.52;1.88;;;;;;;10.63;73.90;99053.88;10339736;28;20069;-74
2023/03/26 09:20:47;;;;;;;17.33;3.55;;;;;;;10.80;73.95;99048.06;10339853;28;20111;-75
2023/03/26 09:26:10;;;;;;;10.77;2.08;;;;;;;10.51;75.25;99063.59;10350615;28;20049;-76
2023/03/26 09:31:30;;;;;;;15.80;2.47;;;;;;;10.41;75.24;99055.16;10355377;28;20049;-74
2023/03/26 09:36:46;;;;;;;9.90;1.75;;;;;;;10.21;75.98;99052.41;10345566;28;20050;-73
2023/03/26 09:42:07;;;;;;;8.02;1.67;;;;;;;10.08;76.33;99031.75;10342671;28;20053;-73
2023/03/26 09:47:48;;;;;;;7.40;0.70;;;;;;;9.79;76.52;99030.25;10338659;28;20042;-74
2023/03/26 09:53:07;;;;;;;5.40;1.13;;;;;;;9.70;76.50;99018.91;10348901;28;20072;-63
2023/03/26 09:58:50;;;;;;;8.02;1.02;;;;;;;9.77;76.29;99019.72;10339608;28;20104;-63
2023/03/26 10:04:00;;;;;;;9.27;1.25;;;;;;;9.78;75.97;99026.75;10357677;28;20038;-62
2023/03/26 10:09:21;;;;;;;3.83;1.13;;;;;;;9.98;75.84;99017.91;10361863;28;20099;-63
2023/03/26 10:14:31;;;;;;;7.45;1.15;;;;;;;10.02;75.85;99005.72;10341333;28;20034;-62
2023/03/26 10:19:50;;;;;;;4.38;0.60;;;;;;;10.15;75.88;99003.06;10340250;28;20065;-62
2023/03/26 10:25:21;;;;;;;4.03;0.73;;;;;;;10.11;76.18;98999.09;10345180;28;20051;-63
2023/03/26 10:30:23;;;;;;;3.88;1.48;;;;;;;9.96;76.64;99004.69;10362411;28;20859;-62
2023/03/26 10:35:44;;;;;;;19.75;12.63;;;;;;;10.12;76.07;98992.72;10355088;28;20049;-62
2023/03/26 10:41:09;;;;;;;38.65;24.67;;;;;;;10.09;76.16;98985.06;10349821;28;20515;-61
2023/03/26 10:46:39;;;;;;;6.57;0.90;;;;;;;10.02;76.41;98985.06;10335434;28;20104;-62
2023/03/26 10:51:52;;;;;;;5.53;0.70;;;;;;;10.18;75.90;98977.63;10332392;28;20056;-62
2023/03/26 10:56:54;;;;;;;8.00;1.45;;;;;;;10.39;75.76;98963.19;10338487;28;20082;-63
2023/03/26 11:02:25;;;;;;;5.60;0.65;;;;;;;10.46;75.49;98950.56;10335690;28;20053;-62
2023/03/26 11:07:43;;;;;;;4.82;1.08;;;;;;;10.42;75.75;98957.38;10338395;28;20100;-67
2023/03/26 11:13:13;;;;;;;2.65;0.80;;;;;;;10.43;76.09;98959.06;10334245;28;20046;-67
2023/03/26 11:18:46;;;;;;;6.32;1.42;;;;;;;10.56;75.55;98950.94;10336247;28;20046;-66
2023/03/26 11:23:58;;;;;;;2.45;0.50;;;;;;;10.90;75.65;98931.00;10362468;28;20134;-67
2023/03/26 11:29:13;;;;;;;7.22;0.47;;;;;;;11.24;75.63;98930.84;10339337;28;20053;-68
2023/03/26 11:34:48;;;;;;;3.47;0.68;;;;;;;11.26;75.13;98926.06;10341884;28;20046;-67
2023/03/26 11:39:52;;;;;;;3.92;0.60;;;;;;;11.21;75.08;98939.31;10345494;28;20417;-65
2023/03/26 11:45:01;;;;;;;;;;;;;;;11.17;75.59;98933.53;10344333;28;20677;-71
2023/03/26 11:50:07;;;;;;;5.57;1.02;;;;;;;11.28;75.08;98929.38;10345715;28;19930;-70
2023/03/26 11:55:11;;;;;;;5.97;1.58;;;;;;;11.44;75.60;98914.56;10348680;28;20505;-71
2023/03/26 12:00:18;;;;;;;5.15;0.70;;;;;;;11.75;75.97;98912.88;10352631;28;20046;-71
2023/03/26 12:05:23;;;;;;;3.77;0.70;;;;;;;12.08;75.86;98910.78;10379538;28;20045;-68
2023/03/26 12:10:37;;;;;;;2.70;0.47;;;;;;;12.05;75.79;98908.53;10347793;28;20107;-67
2023/03/26 12:15:42;;;;;;;5.97;0.50;;;;;;;12.07;76.60;98884.06;10358587;28;20057;-67
2023/03/26 12:20:44;;;;;;;4.07;0.60;;;;;;;12.35;76.48;98880.88;10366756;28;20050;-66
2023/03/26 12:26:04;;;;;;;1.45;0.40;;;;;;;12.75;75.08;98872.31;10363104;28;20104;-68
2023/03/26 12:31:06;;;;;;;3.40;0.40;;;;;;;13.08;74.69;98869.19;10372024;28;20050;-67
2023/03/26 12:36:18;;;;;;;2.35;0.40;;;;;;;13.29;74.51;98859.78;10349601;28;20050;-68
2023/03/26 12:41:32;;;;;;;1.10;0.38;;;;;;;13.60;74.12;98855.16;10374344;28;20069;-67
2023/03/26 12:47:28;;;;;;;1.33;0.40;;;;;;;13.59;74.08;98850.81;10347989;28;20050;-68
2023/03/26 12:53:02;;;;;;;0.63;0.25;;;;;;;13.66;73.01;98839.91;10352537;28;20054;-67
2023/03/26 12:58:27;;;;;;;0.63;0.25;;;;;;;13.41;72.82;98834.72;10347768;28;20070;-67
2023/03/26 13:03:40;;;;;;;1.50;0.40;;;;;;;13.27;72.05;98826.78;10364054;28;20377;-69
2023/03/26 13:09:04;;;;;;;2.15;0.30;;;;;;;13.23;72.25;98824.75;10401814;28;20037;-66
2023/03/26 13:14:25;;;;;;;1.52;0.40;;;;;;;13.21;71.77;98838.50;10581864;23;20067;-69
2023/03/26 13:19:38;;;;;;;0.60;0.32;;;;;;;13.28;72.09;98835.69;11857705;23;20030;-65
2023/03/26 13:25:12;;;;;;;2.53;0.30;;;;;;;13.59;71.25;98818.41;10774545;23;20054;-65
2023/03/26 13:30:31;;;;;;;3.25;0.20;;;;;;;14.14;70.06;98803.72;11154341;23;20092;-65
2023/03/26 13:35:51;;;;;;;1.00;0.20;;;;;;;14.55;68.63;98796.44;10815605;23;20056;-66
2023/03/26 13:41:20;;;;;;;0.88;0.10;;;;;;;15.00;67.12;98778.63;11221184;23;20039;-65
2023/03/26 13:46:47;;;;;;;1.48;0.17;;;;;;;14.87;66.33;98775.19;10606045;23;20117;-65
2023/03/26 13:51:56;;;;;;;2.17;0.10;;;;;;;15.43;64.77;98763.66;11593139;22;20042;-65
2023/03/26 14:02:52;;;;;;;0.60;0.20;;;;;;;15.40;63.13;98756.00;10238859;23;20433;-67
2023/03/26 14:08:12;;;;;;;0.98;0.10;;;;;;;14.41;64.31;98779.66;10215589;29;20054;-66
2023/03/26 14:13:16;;;;;;;1.80;0.10;;;;;;;13.02;68.01;98791.06;10190931;29;20039;-68
2023/03/26 14:18:35;;;;;;;0.30;0.10;;;;;;;12.93;68.43;98784.34;10182714;29;20071;-69
2023/03/26 14:24:10;;;;;;;1.08;0.45;;;;;;;13.47;67.75;98763.59;10198330;29;20415;-68
2023/03/26 14:29:43;;;;;;;2.03;0.10;;;;;;;13.90;67.21;98756.97;10208387;29;20539;-66
2023/03/26 14:35:24;;;;;;;0.20;0.00;;;;;;;14.44;65.38;98744.06;10201937;29;20086;-72
2023/03/26 14:40:51;;;;;;;0.63;0.10;;;;;;;14.76;64.07;98749.00;10209311;29;20126;-68
2023/03/26 14:46:25;;;;;;;0.63;0.10;;;;;;;14.73;62.83;98751.34;10199612;29;20558;-67
2023/03/26 14:51:45;;;;;;;0.52;0.20;;;;;;;14.74;61.73;98745.72;10196168;29;20094;-68
2023/03/26 14:57:11;;;;;;;1.27;0.10;;;;;;;14.80;59.81;98750.16;10232178;28;20082;-69
2023/03/26 15:02:38;;;;;;;3.10;0.80;;;;;;;14.88;57.16;98732.72;10244887;28;20054;-68
2023/03/26 15:08:11;;;;;;;0.77;0.03;;;;;;;14.98;56.45;98729.34;10235211;28;20545;-69
2023/03/26 15:13:41;;;;;;;2.70;0.13;;;;;;;14.78;57.06;98727.94;10231933;28;20454;-69
2023/03/26 15:19:17;;;;;;;1.48;0.10;;;;;;;14.56;57.33;98719.69;10216066;28;20083;-68
2023/03/26 15:24:56;;;;;;;2.85;0.22;;;;;;;14.52;57.56;98720.41;10243783;28;20498;-69
2023/03/26 15:30:13;;;;;;;0.73;0.20;;;;;;;14.48;57.02;98731.69;10238154;28;20110;-69
2023/03/26 15:35:25;;;;;;;;;;;;;;;14.56;58.52;98740.50;10248328;28;20055;-69
2023/03/26 15:40:47;;;;;;;1.13;0.10;;;;;;;14.46;57.82;98766.25;10233721;28;19931;-69
2023/03/26 15:46:22;;;;;;;0.90;0.10;;;;;;;13.86;57.81;98823.34;10230941;28;20039;-67
2023/03/26 15:51:49;;;;;;;0.73;0.00;;;;;;;10.67;66.88;98844.69;10240512;28;20421;-66
2023/03/26 15:57:00;;;;;;;2.22;0.10;;;;;;;9.76;69.69;98875.03;10244654;28;20091;-66
2023/03/26 16:02:33;;;;;;;0.63;0.10;;;;;;;9.23;71.00;98898.09;10249258;28;20071;-69
2023/03/26 16:50:55;;;;;;;0.57;0.20;;;;;;;9.46;74.00;98897.72;10340375;23;20154;-65
2023/03/26 16:56:26;;;;;;;3.30;0.10;;;;;;;9.47;74.11;98901.22;10316997;28;20069;-64
2023/03/26 17:01:44;;;;;;;0.55;0.10;;;;;;;9.42;74.79;98903.69;10282529;28;20054;-66
2023/03/26 17:07:07;;;;;;;1.75;0.10;;;;;;;9.51;74.58;98911.34;10287657;28;20043;-69
2023/03/26 17:12:34;;;;;;;1.27;0.20;;;;;;;9.51;74.80;98905.16;10264009;28;20051;-66
2023/03/26 17:18:08;;;;;;;0.65;0.13;;;;;;;9.63;74.79;98902.69;10267335;28;20044;-68
2023/03/26 17:23:30;;;;;;;3.53;0.10;;;;;;;9.74;74.65;98923.53;10254370;28;20046;-66
2023/03/26 17:29:08;;;;;;;0.85;0.20;;;;;;;9.77;74.85;98931.16;10309584;28;20039;-68
2023/03/26 17:34:38;;;;;;;0.77;0.20;;;;;;;9.87;74.63;98928.06;10276441;28;20058;-66
2023/03/26 17:39:39;;;;;;;0.50;0.25;;;;;;;9.87;75.00;98930.75;10284418;28;20062;-68
2023/03/26 17:44:44;;;;;;;0.70;0.30;;;;;;;9.95;74.51;98935.09;10281026;28;20059;-68
2023/03/26 17:49:49;;;;;;;1.27;0.30;;;;;;;9.99;74.76;98945.22;10274504;28;20100;-69
2023/03/26 17:54:54;;;;;;;0.35;0.20;;;;;;;10.00;75.14;98948.72;10284537;28;20047;-69
2023/03/26 17:59:58;;;;;;;3.22;0.40;;;;;;;9.91;75.43;98953.47;10283330;28;20143;-69
2023/03/26 18:05:02;;;;;;;2.30;0.20;;;;;;;9.64;76.14;98964.19;10293056;28;20105;-68
2023/03/26 18:10:27;;;;;;;1.88;0.35;;;;;;;9.38;76.63;98959.59;10284907;28;20536;-70
2023/03/26 18:15:34;;;;;;;0.60;0.10;;;;;;;9.27;77.32;98960.19;10285114;28;20047;-66
2023/03/26 18:20:37;;;;;;;0.43;0.20;;;;;;;9.13;77.74;98956.63;10259218;28;20047;-69
2023/03/26 18:25:39;;;;;;;1.00;0.17;;;;;;;9.17;77.26;98957.06;10285094;28;20039;-68
2023/03/26 18:30:47;;;;;;;1.20;0.20;;;;;;;9.24;77.35;98964.09;10280982;28;20105;-68
2023/03/26 18:35:53;;;;;;;1.77;0.15;;;;;;;9.26;77.03;98964.72;10258625;28;20046;-68
2023/03/26 18:40:55;;;;;;;0.85;0.22;;;;;;;9.41;76.18;98963.72;10247137;28;20047;-66
2023/03/26 18:45:56;;;;;;;0.82;0.20;;;;;;;9.46;76.37;98969.31;10275626;28;20047;-68
2023/03/26 18:51:04;;;;;;;1.10;0.68;;;;;;;9.47;76.32;98953.00;10282628;28;20399;-68
2023/03/26 18:56:34;;;;;;;2.75;0.30;;;;;;;9.47;76.48;98962.91;10268274;28;20109;-67
2023/03/26 19:01:36;;;;;;;0.60;0.20;;;;;;;9.53;76.04;98970.97;10262728;28;20043;-70
2023/03/26 19:06:41;;;;;;;5.35;0.40;;;;;;;9.42;76.81;98981.47;10268635;28;20528;-68
2023/03/26 19:11:44;;;;;;;4.05;0.80;;;;;;;9.44;76.73;98979.41;10282569;28;20059;-70
2023/03/26 19:16:52;;;;;;;2.05;0.50;;;;;;;9.49;76.38;98983.13;10230050;28;20047;-68
2023/03/26 19:21:55;;;;;;;1.70;0.35;;;;;;;9.55;76.44;98981.50;10233569;28;20115;-68
2023/03/26 19:27:00;;;;;;;0.77;0.30;;;;;;;9.42;77.02;98979.63;10263048;28;20050;-67
2023/03/26 19:32:16;;;;;;;1.02;0.30;;;;;;;9.44;76.88;98988.28;10263097;28;20168;-67
2023/03/26 19:37:21;;;;;;;1.10;0.30;;;;;;;9.36;77.45;98987.63;10266976;28;20556;-68
2023/03/26 19:42:31;;;;;;;1.20;0.30;;;;;;;9.37;77.41;98992.81;10267573;28;20177;-68
2023/03/26 19:47:46;;;;;;;1.35;0.30;;;;;;;9.31;77.70;98994.44;10269779;28;20410;-67
2023/03/26 19:53:12;;;;;;;0.55;0.30;;;;;;;9.30;77.64;99000.84;10276022;28;20572;-69
2023/03/26 19:58:18;;;;;;;1.42;0.50;;;;;;;9.32;77.73;99009.50;10275173;28;20089;-69
2023/03/26 20:03:25;;;;;;;1.30;0.80;;;;;;;9.40;77.61;99008.50;10267815;28;20059;-66
2023/03/26 20:08:27;;;;;;;1.23;0.50;;;;;;;9.57;77.00;99019.69;10267465;28;20047;-68
2023/03/26 20:13:30;;;;;;;0.95;0.52;;;;;;;9.60;77.05;99019.28;10271113;28;20050;-67
2023/03/26 20:18:32;;;;;;;1.88;0.70;;;;;;;9.64;77.37;99030.44;10280236;28;20047;-67
2023/03/26 20:23:33;;;;;;;0.30;0.30;;;;;;;9.61;76.97;99041.56;10270345;28;20043;-67
2023/03/26 20:28:34;;;;;;;0.30;0.30;;;;;;;9.58;77.23;99047.31;10278682;28;20848;-67
2023/03/26 20:33:49;;;;;;;0.22;0.10;;;;;;;9.38;77.71;99053.47;10278919;28;20050;-67
2023/03/26 20:38:51;;;;;;;0.30;0.30;;;;;;;9.35;77.49;99058.41;10275702;28;20056;-67
2023/03/26 20:43:52;;;;;;;0.32;0.28;;;;;;;9.25;77.33;99069.50;10267222;28;20082;-67
2023/03/26 20:48:55;;;;;;;0.50;0.20;;;;;;;9.22;77.27;99076.09;10275864;28;20102;-68
2023/03/26 20:53:57;;;;;;;0.25;0.13;;;;;;;9.16;77.21;99078.72;10279722;28;20605;-66
2023/03/26 20:58:58;;;;;;;0.15;0.10;;;;;;;9.10;77.13;99094.59;10284066;28;20056;-67
2023/03/26 21:04:12;;;;;;;0.65;0.10;;;;;;;9.11;76.94;99106.13;10268803;28;20046;-67
2023/03/26 21:09:22;;;;;;;0.20;0.20;;;;;;;9.05;76.71;99115.78;10267527;28;20043;-67
2023/03/26 21:14:28;;;;;;;1.45;0.20;;;;;;;8.99;77.13;99126.47;10279584;28;20047;-66
2023/03/26 21:19:30;;;;;;;2.13;0.20;;;;;;;8.89;77.27;99149.09;10277767;28;20070;-68
2023/03/26 21:24:57;;;;;;;0.47;0.20;;;;;;;8.77;76.90;99161.34;10273158;28;20042;-67
2023/03/26 21:29:59;;;;;;;0.30;0.20;;;;;;;8.64;76.87;99166.59;10260332;28;20050;-68
2023/03/26 21:35:03;;;;;;;0.57;0.22;;;;;;;8.62;76.95;99182.03;10264370;28;20055;-68
2023/03/26 21:40:24;;;;;;;0.40;0.30;;;;;;;8.62;76.80;99187.41;10273944;28;20055;-68
2023/03/26 21:45:26;;;;;;;2.35;0.45;;;;;;;8.59;76.73;99193.13;10276492;28;20039;-67
2023/03/26 21:50:28;;;;;;;0.40;0.30;;;;;;;8.60;76.37;99203.66;10279289;28;20070;-67
2023/03/26 21:55:39;;;;;;;1.08;0.52;;;;;;;8.66;76.06;99218.13;10285867;28;20054;-67
2023/03/26 22:00:52;;;;;;;1.70;0.55;;;;;;;8.64;76.24;99230.88;10250875;28;20129;-68
2023/03/26 22:06:05;;;;;;;1.10;0.40;;;;;;;8.53;76.63;99242.91;10280026;28;20133;-67
2023/03/26 22:11:10;;;;;;;1.35;0.70;;;;;;;8.50;76.21;99257.53;10272171;28;20086;-68
2023/03/26 22:16:11;;;;;;;2.58;0.50;;;;;;;8.44;76.19;99285.06;10263641;28;20039;-67
2023/03/26 22:21:13;;;;;;;1.67;1.00;;;;;;;8.36;75.74;99309.25;10265041;28;20047;-68
2023/03/26 22:26:14;;;;;;;2.75;0.75;;;;;;;8.25;75.94;99310.53;10278463;28;20046;-66
2023/03/26 22:31:16;;;;;;;2.60;0.60;;;;;;;8.14;76.04;99327.91;10260888;28;20158;-67
2023/03/26 22:36:18;;;;;;;1.13;0.50;;;;;;;8.19;75.23;99334.56;10271364;28;20109;-66
2023/03/26 22:41:24;;;;;;;1.58;0.70;;;;;;;8.19;74.93;99345.28;10271419;28;20078;-66
2023/03/26 22:46:26;;;;;;;0.80;0.50;;;;;;;8.14;74.90;99343.16;10275534;28;20458;-66
2023/03/26 22:51:28;;;;;;;2.20;0.60;;;;;;;8.11;75.16;99359.56;10270342;28;20424;-66
2023/03/26 22:56:29;;;;;;;1.48;0.60;;;;;;;8.04;75.40;99367.53;10275381;28;20101;-66
2023/03/26 23:01:31;;;;;;;2.33;1.23;;;;;;;8.05;74.69;99392.44;10272836;28;20134;-67
2023/03/26 23:06:32;;;;;;;2.50;0.55;;;;;;;7.95;75.25;99403.41;10268339;28;20045;-66
2023/03/26 23:11:34;;;;;;;1.75;0.65;;;;;;;7.97;75.12;99417.44;10277576;28;20134;-66
2023/03/26 23:16:37;;;;;;;1.08;0.98;;;;;;;7.85;74.89;99433.09;10276051;28;20189;-66
2023/03/26 23:21:38;;;;;;;2.10;0.50;;;;;;;7.78;74.53;99439.34;10274464;28;20054;-66
2023/03/26 23:26:40;;;;;;;2.58;0.47;;;;;;;7.85;74.85;99453.66;10279617;28;20049;-67
2023/03/26 23:31:52;;;;;;;2.38;0.52;;;;;;;7.79;75.03;99468.59;10268639;28;20043;-67
2023/03/26 23:36:54;;;;;;;3.88;0.85;;;;;;;7.73;75.42;99472.81;10276103;28;20050;-67
2023/03/26 23:41:55;;;;;;;2.25;0.70;;;;;;;7.68;75.41;99493.94;10275204;28;20063;-67
2023/03/26 23:46:59;;;;;;;3.78;0.95;;;;;;;7.49;75.48;99505.91;10279500;28;20097;-66
2023/03/26 23:52:00;;;;;;;4.85;0.52;;;;;;;7.37;74.82;99525.22;10269712;28;20054;-68
2023/03/26 23:57:02;;;;;;;2.35;1.25;;;;;;;7.31;75.69;99524.09;10275215;28;20109;-68
